Time,TemperatureF,DewpointF,PressureIn,WindDirection,WindDirectionDegrees,WindSpeedMPH,WindSpeedGustMPH,Humidity,HourlyPrecipIn,Conditions,Clouds,dailyrainin,SoftwareType,DateUTC
2014-01-05 00:04:00,52.5,31.7,29.97,North,0,0.0,0.0,45,0.00,,,0.00,LWC V2.10 B1813,2014-01-05 08:04:00,
2014-01-05 00:09:00,52.5,32.2,29.96,North,0,0.7,0.7,46,0.00,,,0.00,LWC V2.10 B1813,2014-01-05 08:09:00,
2014-01-05 00:14:00,52.5,32.2,29.97,North,0,0.0,0.0,46,0.00,,,0.00,LWC V2.10 B1813,2014-01-05 08:14:00,
2014-01-05 00:19:00,52.3,31.5,29.96,North,0,0.0,0.0,45,0.00,,,0.00,LWC V2.10 B1813,2014-01-05 08:19:00,
2014-01-05 00:24:00,52.3,31.5,29.96,North,0,0.0,0.0,45,0.00,,,0.00,LWC V2.10 B1813,2014-01-05 08:24:00,
2014-01-05 00:29:00,52.3,31.5,29.96,North,0,0.0,0.0,45,0.00,,,0.00,LWC V2.10 B1813,2014-01-05 08:29:00,
2014-01-05 00:34:00,52.3,30.9,29.96,North,0,0.0,0.0,44,0.00,,,0.00,LWC V2.10 B1813,2014-01-05 08:34:00,
2014-01-05 00:39:00,52.3,30.9,29.96,North,0,0.0,0.0,44,0.00,,,0.00,LWC V2.10 B1813,2014-01-05 08:39:00,
2014-01-05 00:44:00,52.5,31.7,29.95,North,0,0.0,0.0,45,0.00,,,0.00,LWC V2.10 B1813,2014-01-05 08:44:00,
2014-01-05 00:49:00,52.7,31.8,29.96,North,0,0.0,0.0,45,0.00,,,0.00,LWC V2.10 B1813,2014-01-05 08:49:00,
2014-01-05 00:54:00,52.7,31.8,29.96,North,0,0.0,0.0,45,0.00,,,0.00,LWC V2.10 B1813,2014-01-05 08:54:00,
2014-01-05 00:59:00,52.9,32.0,29.96,North,0,0.0,0.0,45,0.00,,,0.00,LWC V2.10 B1813,2014-01-05 08:59:00,
2014-01-05 01:04:00,52.9,32.0,29.96,North,0,0.0,0.0,45,0.00,,,0.00,LWC V2.10 B1813,2014-01-05 09:04:00,
2014-01-05 01:09:00,52.9,32.0,29.95,North,0,0.0,0.0,45,0.00,,,0.00,LWC V2.10 B1813,2014-01-05 09:09:00,
2014-01-05 01:14:00,52.9,31.4,29.96,North,0,0.0,0.0,44,0.00,,,0.00,LWC V2.10 B1813,2014-01-05 09:14:00,
2014-01-05 01:19:00,53.2,31.2,29.96,North,0,0.0,0.0,43,0.00,,,0.00,LWC V2.10 B1813,2014-01-05 09:19:00,
2014-01-05 01:24:00,53.1,30.5,29.96,North,0,0.0,0.0,42,0.00,,,0.00,LWC V2.10 B1813,2014-01-05 09:24:00,
2014-01-05 01:29:00,52.9,29.8,29.97,North,0,0.0,0.0,41,0.00,,,0.00,LWC V2.10 B1813,2014-01-05 09:29:00,
2014-01-05 01:34:00,52.9,29.2,29.97,NNE,22,0.0,0.0,40,0.00,,,0.00,LWC V2.10 B1813,2014-01-05 09:34:00,
2014-01-05 01:39:00,53.2,28.8,29.97,North,0,0.0,0.4,39,0.00,,,0.00,LWC V2.10 B1813,2014-01-05 09:39:00,
2014-01-05 01:44:00,53.2,28.1,29.97,North,0,0.0,0.0,38,0.00,,,0.00,LWC V2.10 B1813,2014-01-05 09:44:00,
2014-01-05 01:49:00,53.1,28.0,29.97,North,0,0.9,0.9,38,0.00,,,0.00,LWC V2.10 B1813,2014-01-05 09:49:00,
2014-01-05 01:54:00,52.9,27.1,29.97,North,0,0.0,0.0,37,0.00,,,0.00,LWC V2.10 B1813,2014-01-05 09:54:00,
2014-01-05 01:59:00,52.9,27.1,29.97,North,0,1.1,1.1,37,0.00,,,0.00,LWC V2.10 B1813,2014-01-05 09:59:00,
2014-01-05 02:04:00,52.9,26.5,29.97,North,0,0.0,0.0,36,0.00,,,0.00,LWC V2.10 B1813,2014-01-05 10:04:00,
2014-01-05 02:09:00,52.9,26.5,29.97,North,0,0.0,0.0,36,0.00,,,0.00,LWC V2.10 B1813,2014-01-05 10:09:00,
2014-01-05 02:14:00,52.9,26.5,29.97,North,0,0.0,0.0,36,0.00,,,0.00,LWC V2.10 B1813,2014-01-05 10:14:00,
2014-01-05 02:19:00,52.9,25.8,29.97,North,0,1.3,1.3,35,0.00,,,0.00,LWC V2.10 B1813,2014-01-05 10:19:00,
2014-01-05 02:24:00,52.9,25.8,29.97,North,0,0.0,0.0,35,0.00,,,0.00,LWC V2.10 B1813,2014-01-05 10:24:00,
2014-01-05 02:29:00,53.2,25.4,29.97,North,0,0.0,0.0,34,0.00,,,0.00,LWC V2.10 B1813,2014-01-05 10:29:00,
2014-01-05 02:34:00,53.2,25.4,29.97,North,0,4.7,4.7,34,0.00,,,0.00,LWC V2.10 B1813,2014-01-05 10:34:00,
2014-01-05 02:39:00,53.2,24.7,29.98,NNE,22,5.8,5.8,33,0.00,,,0.00,LWC V2.10 B1813,2014-01-05 10:39:00,
2014-01-05 02:44:00,53.4,24.9,29.98,North,0,4.7,4.7,33,0.00,,,0.00,LWC V2.10 B1813,2014-01-05 10:44:00,
2014-01-05 02:49:00,53.4,24.9,29.98,NNW,337,6.7,6.7,32,0.00,,,0.00,LWC V2.10 B1813,2014-01-05 10:49:00,
2014-01-05 02:54:00,53.8,24.5,29.98,North,0,4.5,6.9,32,0.00,,,0.00,LWC V2.10 B1813,2014-01-05 10:54:00,
2014-01-05 02:59:00,53.8,24.5,29.98,North,0,6.7,6.7,32,0.00,,,0.00,LWC V2.10 B1813,2014-01-05 10:59:00,
2014-01-05 03:04:00,53.8,24.5,29.98,North,0,5.6,7.2,32,0.00,,,0.00,LWC V2.10 B1813,2014-01-05 11:04:00,
2014-01-05 03:09:00,53.6,24.4,29.99,NE,45,4.5,4.5,32,0.00,,,0.00,LWC V2.10 B1813,2014-01-05 11:09:00,
2014-01-05 03:14:00,53.4,24.2,29.99,NNE,22,0.0,0.0,32,0.00,,,0.00,LWC V2.10 B1813,2014-01-05 11:14:00,
2014-01-05 03:19:00,53.4,24.2,29.98,North,0,0.4,0.4,32,0.00,,,0.00,LWC V2.10 B1813,2014-01-05 11:19:00,
2014-01-05 03:24:00,53.2,24.0,29.98,North,0,0.0,0.0,32,0.00,,,0.00,LWC V2.10 B1813,2014-01-05 11:24:00,
2014-01-05 03:29:00,52.9,23.7,29.98,North,0,0.0,0.0,32,0.00,,,0.00,LWC V2.10 B1813,2014-01-05 11:29:00,
2014-01-05 03:34:00,52.9,23.6,29.99,North,0,0.0,0.0,32,0.00,,,0.00,LWC V2.10 B1813,2014-01-05 11:34:00,
2014-01-05 03:39:00,52.5,23.4,29.99,North,0,1.1,1.1,32,0.00,,,0.00,LWC V2.10 B1813,2014-01-05 11:39:00,
2014-01-05 03:44:00,52.3,23.9,29.99,North,0,0.0,0.0,33,0.00,,,0.00,LWC V2.10 B1813,2014-01-05 11:44:00,
2014-01-05 03:49:00,52.3,24.6,29.99,North,0,1.3,1.3,34,0.00,,,0.00,LWC V2.10 B1813,2014-01-05 11:49:00,
2014-01-05 03:54:00,52.2,25.1,29.99,North,0,1.1,1.1,35,0.00,,,0.00,LWC V2.10 B1813,2014-01-05 11:54:00,
2014-01-05 04:04:00,51.8,25.5,29.99,NNW,337,0.0,0.0,36,0.00,,,0.00,LWC V2.10 B1813,2014-01-05 12:04:00,
2014-01-05 04:09:00,51.6,25.3,29.99,NNW,337,0.0,0.0,36,0.00,,,0.00,LWC V2.10 B1813,2014-01-05 12:09:00,
2014-01-05 04:14:00,51.4,25.2,29.99,NNW,337,1.6,1.6,36,0.00,,,0.00,LWC V2.10 B1813,2014-01-05 12:14:00,
2014-01-05 04:19:00,51.4,24.5,29.98,North,0,3.4,6.0,35,0.00,,,0.00,LWC V2.10 B1813,2014-01-05 12:19:00,
2014-01-05 04:24:00,51.6,24.0,29.98,NNW,337,0.9,3.4,34,0.00,,,0.00,LWC V2.10 B1813,2014-01-05 12:24:00,
2014-01-05 04:29:00,51.6,24.6,29.98,NNW,337,0.0,0.0,35,0.00,,,0.00,LWC V2.10 B1813,2014-01-05 12:29:00,
2014-01-05 04:34:00,51.4,25.2,29.99,NNW,337,0.0,0.0,36,0.00,,,0.00,LWC V2.10 B1813,2014-01-05 12:34:00,
2014-01-05 04:39:00,51.3,25.7,29.99,NNW,337,3.1,3.1,37,0.00,,,0.00,LWC V2.10 B1813,2014-01-05 12:39:00,
2014-01-05 04:44:00,51.1,25.5,29.99,NNE,22,4.7,4.7,37,0.00,,,0.00,LWC V2.10 B1813,2014-01-05 12:44:00,
2014-01-05 04:49:00,50.9,25.4,29.99,NW,315,1.1,6.5,36,0.00,,,0.00,LWC V2.10 B1813,2014-01-05 12:49:00,
2014-01-05 04:54:00,50.7,24.5,29.99,North,0,0.0,1.1,36,0.00,,,0.00,LWC V2.10 B1813,2014-01-05 12:54:00,
2014-01-05 04:59:00,50.7,24.5,29.99,North,0,0.7,0.7,36,0.00,,,0.00,LWC V2.10 B1813,2014-01-05 12:59:00,
2014-01-05 05:04:00,50.7,23.8,29.98,North,0,1.1,5.8,36,0.00,,,0.00,LWC V2.10 B1813,2014-01-05 13:04:00,
2014-01-05 05:09:00,51.1,23.5,29.99,North,0,0.0,5.6,34,0.00,,,0.00,LWC V2.10 B1813,2014-01-05 13:09:00,
2014-01-05 05:14:00,51.1,23.5,29.99,NNE,22,0.0,0.0,34,0.00,,,0.00,LWC V2.10 B1813,2014-01-05 13:14:00,
2014-01-05 05:19:00,51.1,24.2,29.99,North,0,3.6,8.1,35,0.00,,,0.00,LWC V2.10 B1813,2014-01-05 13:19:00,
2014-01-05 05:24:00,50.9,23.3,30.00,North,0,2.7,6.5,34,0.00,,,0.00,LWC V2.10 B1813,2014-01-05 13:24:00,
2014-01-05 05:29:00,51.1,22.8,30.00,North,0,6.9,6.9,33,0.00,,,0.00,LWC V2.10 B1813,2014-01-05 13:29:00,
2014-01-05 05:34:00,51.4,22.6,30.00,North,0,5.6,9.2,32,0.00,,,0.00,LWC V2.10 B1813,2014-01-05 13:34:00,
2014-01-05 05:39:00,52.0,22.9,29.99,North,0,4.2,4.2,32,0.00,,,0.00,LWC V2.10 B1813,2014-01-05 13:39:00,
2014-01-05 05:44:00,52.0,22.9,30.00,North,0,0.4,0.4,32,0.00,,,0.00,LWC V2.10 B1813,2014-01-05 13:44:00,
2014-01-05 05:49:00,51.8,22.9,30.00,North,0,3.6,3.6,32,0.00,,,0.00,LWC V2.10 B1813,2014-01-05 13:49:00,
2014-01-05 05:54:00,51.6,22.6,30.00,North,0,6.0,6.0,32,0.00,,,0.00,LWC V2.10 B1813,2014-01-05 13:54:00,
2014-01-05 05:59:00,51.6,22.6,30.00,North,0,5.1,5.1,32,0.00,,,0.00,LWC V2.10 B1813,2014-01-05 13:59:00,
2014-01-05 06:04:00,51.6,23.1,30.01,NNW,337,0.0,0.0,33,0.00,,,0.00,LWC V2.10 B1813,2014-01-05 14:04:00,
2014-01-05 06:09:00,51.3,22.9,30.01,NW,315,1.8,1.8,33,0.00,,,0.00,LWC V2.10 B1813,2014-01-05 14:09:00,
2014-01-05 06:14:00,51.1,22.8,30.01,NW,315,1.1,1.1,33,0.00,,,0.00,LWC V2.10 B1813,2014-01-05 14:14:00,
2014-01-05 06:24:00,50.7,23.1,30.01,North,0,0.0,0.0,34,0.00,,,0.00,LWC V2.10 B1813,2014-01-05 14:24:00,
2014-01-05 06:29:00,50.7,22.5,30.01,North,0,3.6,3.6,33,0.00,,,0.00,LWC V2.10 B1813,2014-01-05 14:29:00,
2014-01-05 06:34:00,50.7,23.1,30.01,NW,315,0.0,2.5,34,0.00,,,0.00,LWC V2.10 B1813,2014-01-05 14:34:00,
2014-01-05 06:39:00,50.7,23.1,30.01,North,0,0.0,0.0,34,0.00,,,0.00,LWC V2.10 B1813,2014-01-05 14:39:00,
2014-01-05 06:44:00,50.5,22.3,30.01,NNW,337,0.0,0.0,33,0.00,,,0.00,LWC V2.10 B1813,2014-01-05 14:44:00,
2014-01-05 06:49:00,50.7,22.5,30.01,NNW,337,2.0,2.0,33,0.00,,,0.00,LWC V2.10 B1813,2014-01-05 14:49:00,
2014-01-05 06:54:00,50.7,22.5,30.01,NNW,337,0.0,0.0,33,0.00,,,0.00,LWC V2.10 B1813,2014-01-05 14:54:00,
2014-01-05 06:59:00,50.7,22.5,30.02,NW,315,0.0,0.0,33,0.00,,,0.00,LWC V2.10 B1813,2014-01-05 14:59:00,
2014-01-05 07:04:00,50.5,23.0,30.02,WNW,292,0.0,0.7,34,0.00,,,0.00,LWC V2.10 B1813,2014-01-05 15:04:00,
2014-01-05 07:09:00,50.4,22.8,30.02,WNW,292,0.0,0.0,34,0.00,,,0.00,LWC V2.10 B1813,2014-01-05 15:09:00,
2014-01-05 07:14:00,50.4,22.8,30.03,WNW,292,0.9,0.9,34,0.00,,,0.00,LWC V2.10 B1813,2014-01-05 15:14:00,
2014-01-05 07:19:00,50.2,22.7,30.03,North,0,1.8,3.1,34,0.00,,,0.00,LWC V2.10 B1813,2014-01-05 15:19:00,
2014-01-05 07:24:00,50.2,22.7,30.03,North,0,3.4,3.4,34,0.00,,,0.00,LWC V2.10 B1813,2014-01-05 15:24:00,
2014-01-05 07:29:00,50.4,22.8,30.03,North,0,0.0,0.0,34,0.00,,,0.00,LWC V2.10 B1813,2014-01-05 15:29:00,
2014-01-05 07:34:00,50.4,22.8,30.03,North,0,3.1,3.1,34,0.00,,,0.00,LWC V2.10 B1813,2014-01-05 15:34:00,
2014-01-05 07:39:00,50.5,22.3,30.03,North,0,5.8,5.8,33,0.00,,,0.00,LWC V2.10 B1813,2014-01-05 15:39:00,
2014-01-05 07:44:00,51.1,22.8,30.04,North,0,0.0,0.0,33,0.00,,,0.00,LWC V2.10 B1813,2014-01-05 15:44:00,
2014-01-05 07:49:00,52.0,22.6,30.04,NNW,337,2.2,2.2,32,0.00,,,0.00,LWC V2.10 B1813,2014-01-05 15:49:00,
2014-01-05 07:54:00,52.5,22.7,30.04,North,0,5.4,6.3,31,0.00,,,0.00,LWC V2.10 B1813,2014-01-05 15:54:00,
2014-01-05 07:59:00,53.2,21.7,30.04,NNE,22,8.3,8.3,29,0.00,,,0.00,LWC V2.10 B1813,2014-01-05 15:59:00,
2014-01-05 08:04:00,54.1,22.3,30.05,NNE,22,6.3,6.3,29,0.00,,,0.00,LWC V2.10 B1813,2014-01-05 16:04:00,
2014-01-05 08:09:00,54.3,22.6,30.04,North,0,6.3,7.2,29,0.00,,,0.00,LWC V2.10 B1813,2014-01-05 16:09:00,
2014-01-05 08:14:00,54.9,22.1,30.05,NNE,22,4.9,4.9,28,0.00,,,0.00,LWC V2.10 B1813,2014-01-05 16:14:00,
2014-01-05 08:19:00,55.2,22.4,30.05,North,0,2.2,4.5,28,0.00,,,0.00,LWC V2.10 B1813,2014-01-05 16:19:00,
2014-01-05 08:24:00,55.6,22.7,30.06,North,0,3.6,4.9,28,0.00,,,0.00,LWC V2.10 B1813,2014-01-05 16:24:00,
2014-01-05 08:29:00,55.9,23.0,30.06,North,0,5.6,5.6,28,0.00,,,0.00,LWC V2.10 B1813,2014-01-05 16:29:00,
2014-01-05 08:34:00,56.1,22.2,30.06,North,0,6.7,6.7,27,0.00,,,0.00,LWC V2.10 B1813,2014-01-05 16:34:00,
2014-01-05 08:39:00,56.1,23.2,30.06,North,0,5.4,5.4,28,0.00,,,0.00,LWC V2.10 B1813,2014-01-05 16:39:00,
2014-01-05 08:44:00,56.5,22.6,30.06,North,0,7.4,7.4,27,0.00,,,0.00,LWC V2.10 B1813,2014-01-05 16:44:00,
2014-01-05 08:49:00,57.0,22.1,30.06,NNE,22,1.1,7.8,26,0.00,,,0.00,LWC V2.10 B1813,2014-01-05 16:49:00,
2014-01-05 08:54:00,57.4,21.4,30.06,NNE,22,5.6,5.6,25,0.00,,,0.00,LWC V2.10 B1813,2014-01-05 16:54:00,
2014-01-05 08:59:00,57.6,21.6,30.06,North,0,6.3,6.3,25,0.00,,,0.00,LWC V2.10 B1813,2014-01-05 16:59:00,
2014-01-05 09:04:00,57.7,21.7,30.06,North,0,8.7,8.7,25,0.00,,,0.00,LWC V2.10 B1813,2014-01-05 17:04:00,
2014-01-05 09:09:00,57.9,21.9,30.07,NNE,22,5.6,5.6,25,0.00,,,0.00,LWC V2.10 B1813,2014-01-05 17:09:00,
2014-01-05 09:14:00,57.9,21.9,30.07,NNE,22,1.8,1.8,25,0.00,,,0.00,LWC V2.10 B1813,2014-01-05 17:14:00,
2014-01-05 09:19:00,58.3,22.2,30.07,NNE,22,1.3,5.4,25,0.00,,,0.00,LWC V2.10 B1813,2014-01-05 17:19:00,
2014-01-05 09:24:00,58.3,22.2,30.07,NNE,22,2.9,2.9,25,0.00,,,0.00,LWC V2.10 B1813,2014-01-05 17:24:00,
2014-01-05 09:29:00,58.6,22.5,30.08,North,0,5.6,5.6,25,0.00,,,0.00,LWC V2.10 B1813,2014-01-05 17:29:00,
2014-01-05 09:34:00,59.2,20.0,30.07,North,0,5.4,5.4,22,0.00,,,0.00,LWC V2.10 B1813,2014-01-05 17:34:00,
2014-01-05 09:39:00,59.4,22.2,30.08,NNE,22,8.3,8.3,24,0.00,,,0.00,LWC V2.10 B1813,2014-01-05 17:39:00,
2014-01-05 09:44:00,59.5,22.3,30.08,NNE,22,9.2,9.2,24,0.00,,,0.00,LWC V2.10 B1813,2014-01-05 17:44:00,
2014-01-05 09:49:00,60.1,20.8,30.08,NNW,337,5.6,5.6,22,0.00,,,0.00,LWC V2.10 B1813,2014-01-05 17:49:00,
2014-01-05 09:54:00,60.4,22.1,30.08,NNE,22,6.7,8.3,23,0.00,,,0.00,LWC V2.10 B1813,2014-01-05 17:54:00,
2014-01-05 09:59:00,60.6,22.3,30.08,NNE,22,6.0,6.0,23,0.00,,,0.00,LWC V2.10 B1813,2014-01-05 17:59:00,
2014-01-05 10:04:00,61.0,21.6,30.08,North,0,4.9,4.9,22,0.00,,,0.00,LWC V2.10 B1813,2014-01-05 18:04:00,
2014-01-05 10:09:00,61.0,22.6,30.09,NNE,22,4.9,4.9,23,0.00,,,0.00,LWC V2.10 B1813,2014-01-05 18:09:00,
2014-01-05 10:14:00,61.3,21.0,30.08,NNE,22,8.1,8.1,21,0.00,,,0.00,LWC V2.10 B1813,2014-01-05 18:14:00,
2014-01-05 10:19:00,61.5,21.0,30.08,East,90,0.0,5.4,21,0.00,,,0.00,LWC V2.10 B1813,2014-01-05 18:19:00,
2014-01-05 10:24:00,61.9,20.4,30.08,NE,45,4.0,4.0,20,0.00,,,0.00,LWC V2.10 B1813,2014-01-05 18:24:00,
2014-01-05 10:29:00,62.1,21.5,30.08,NE,45,2.7,2.7,21,0.00,,,0.00,LWC V2.10 B1813,2014-01-05 18:29:00,
2014-01-05 10:34:00,62.4,20.9,30.09,NNE,22,0.0,1.3,20,0.00,,,0.00,LWC V2.10 B1813,2014-01-05 18:34:00,
2014-01-05 10:39:00,62.2,20.7,30.08,NNE,22,0.9,7.6,20,0.00,,,0.00,LWC V2.10 B1813,2014-01-05 18:39:00,
2014-01-05 10:44:00,62.4,21.8,30.09,NE,45,7.8,7.8,21,0.00,,,0.00,LWC V2.10 B1813,2014-01-05 18:44:00,
2014-01-05 10:49:00,62.6,-99.9,30.08,North,0,8.1,8.1,19,0.00,,,0.00,LWC V2.10 B1813,2014-01-05 18:49:00,
2014-01-05 10:54:00,63.0,-99.9,30.08,NNE,22,11.4,11.4,19,0.00,,,0.00,LWC V2.10 B1813,2014-01-05 18:54:00,
2014-01-05 10:59:00,63.3,-99.9,30.08,NNE,22,6.9,6.9,19,0.00,,,0.00,LWC V2.10 B1813,2014-01-05 18:59:00,
2014-01-05 11:04:00,63.9,-99.9,30.08,NNE,22,6.9,15.0,19,0.00,,,0.00,LWC V2.10 B1813,2014-01-05 19:04:00,
2014-01-05 11:09:00,64.0,-99.9,30.08,NNE,22,7.6,7.6,19,0.00,,,0.00,LWC V2.10 B1813,2014-01-05 19:09:00,
2014-01-05 11:14:00,64.2,22.3,30.08,SE,135,2.5,2.5,20,0.00,,,0.00,LWC V2.10 B1813,2014-01-05 19:14:00,
2014-01-05 11:19:00,64.6,22.6,30.07,North,0,5.4,8.9,20,0.00,,,0.00,LWC V2.10 B1813,2014-01-05 19:19:00,
2014-01-05 11:24:00,64.6,22.6,30.07,NNE,22,11.9,11.9,20,0.00,,,0.00,LWC V2.10 B1813,2014-01-05 19:24:00,
2014-01-05 11:29:00,64.6,24.6,30.07,NNE,22,5.4,5.4,22,0.00,,,0.00,LWC V2.10 B1813,2014-01-05 19:29:00,
2014-01-05 11:34:00,64.6,24.6,30.07,ENE,67,8.9,8.9,22,0.00,,,0.00,LWC V2.10 B1813,2014-01-05 19:34:00,
2014-01-05 11:39:00,64.4,23.5,30.07,NNE,22,4.7,4.7,21,0.00,,,0.00,LWC V2.10 B1813,2014-01-05 19:39:00,
2014-01-05 11:44:00,64.2,22.3,30.06,NNE,22,6.0,6.0,20,0.00,,,0.00,LWC V2.10 B1813,2014-01-05 19:44:00,
2014-01-05 11:49:00,64.4,23.5,30.06,North,0,7.4,7.6,21,0.00,,,0.00,LWC V2.10 B1813,2014-01-05 19:49:00,
2014-01-05 11:54:00,64.6,22.6,30.06,NNE,22,2.9,5.4,20,0.00,,,0.00,LWC V2.10 B1813,2014-01-05 19:54:00,
2014-01-05 11:59:00,64.8,24.7,30.06,NE,45,8.1,8.1,22,0.00,,,0.00,LWC V2.10 B1813,2014-01-05 19:59:00,
2014-01-05 12:04:00,64.8,22.7,30.05,NNE,22,9.4,9.4,20,0.00,,,0.00,LWC V2.10 B1813,2014-01-05 20:04:00,
2014-01-05 12:09:00,64.8,22.7,30.05,North,0,10.1,10.1,20,0.00,,,0.00,LWC V2.10 B1813,2014-01-05 20:09:00,
2014-01-05 12:14:00,64.9,-99.9,30.05,NNE,22,5.8,5.8,19,0.00,,,0.00,LWC V2.10 B1813,2014-01-05 20:14:00,
2014-01-05 12:19:00,64.9,-99.9,30.05,NNE,22,2.2,2.9,19,0.00,,,0.00,LWC V2.10 B1813,2014-01-05 20:19:00,
2014-01-05 12:24:00,65.1,-99.9,30.04,NNE,22,6.3,6.3,19,0.00,,,0.00,LWC V2.10 B1813,2014-01-05 20:24:00,
2014-01-05 12:29:00,65.5,-99.9,30.04,NE,45,4.5,4.5,19,0.00,,,0.00,LWC V2.10 B1813,2014-01-05 20:29:00,
2014-01-05 12:34:00,65.7,-99.9,30.04,NE,45,7.8,7.8,18,0.00,,,0.00,LWC V2.10 B1813,2014-01-05 20:34:00,
2014-01-05 12:39:00,65.7,-99.9,30.04,North,0,11.0,11.0,18,0.00,,,0.00,LWC V2.10 B1813,2014-01-05 20:39:00,
2014-01-05 12:44:00,65.7,-99.9,30.04,NNE,22,6.0,6.0,18,0.00,,,0.00,LWC V2.10 B1813,2014-01-05 20:44:00,
2014-01-05 12:49:00,65.7,-99.9,30.03,North,0,8.3,8.3,18,0.00,,,0.00,LWC V2.10 B1813,2014-01-05 20:49:00,
2014-01-05 12:54:00,66.0,-99.9,30.03,North,0,6.9,6.9,17,0.00,,,0.00,LWC V2.10 B1813,2014-01-05 20:54:00,
2014-01-05 12:59:00,66.4,-99.9,30.03,North,0,6.9,6.9,17,0.00,,,0.00,LWC V2.10 B1813,2014-01-05 20:59:00,
2014-01-05 13:04:00,66.6,-99.9,30.03,NE,45,2.9,2.9,18,0.00,,,0.00,LWC V2.10 B1813,2014-01-05 21:04:00,
2014-01-05 13:09:00,66.7,-99.9,30.03,NNE,22,4.5,4.5,18,0.00,,,0.00,LWC V2.10 B1813,2014-01-05 21:09:00,
2014-01-05 13:14:00,66.9,-99.9,30.02,NNE,22,9.4,14.8,17,0.00,,,0.00,LWC V2.10 B1813,2014-01-05 21:14:00,
2014-01-05 13:19:00,66.7,-99.9,30.02,NNE,22,10.5,10.5,17,0.00,,,0.00,LWC V2.10 B1813,2014-01-05 21:19:00,
2014-01-05 13:24:00,66.7,-99.9,30.02,NNE,22,4.5,4.5,17,0.00,,,0.00,LWC V2.10 B1813,2014-01-05 21:24:00,
2014-01-05 13:29:00,66.7,-99.9,30.02,NE,45,4.2,6.7,18,0.00,,,0.00,LWC V2.10 B1813,2014-01-05 21:29:00,
2014-01-05 13:34:00,66.7,-99.9,30.02,NNE,22,2.2,4.9,18,0.00,,,0.00,LWC V2.10 B1813,2014-01-05 21:34:00,
2014-01-05 13:39:00,66.7,-99.9,30.02,North,0,6.7,6.7,17,0.00,,,0.00,LWC V2.10 B1813,2014-01-05 21:39:00,
2014-01-05 13:44:00,66.7,-99.9,30.02,NNE,22,4.7,5.4,18,0.00,,,0.00,LWC V2.10 B1813,2014-01-05 21:44:00,
2014-01-05 13:49:00,66.7,-99.9,30.02,NNE,22,7.2,7.8,18,0.00,,,0.00,LWC V2.10 B1813,2014-01-05 21:49:00,
2014-01-05 13:54:00,66.6,-99.9,30.02,North,0,6.3,6.3,18,0.00,,,0.00,LWC V2.10 B1813,2014-01-05 21:54:00,
2014-01-05 13:59:00,66.4,-99.9,30.02,North,0,8.5,8.5,19,0.00,,,0.00,LWC V2.10 B1813,2014-01-05 21:59:00,
2014-01-05 14:04:00,66.4,-99.9,30.01,North,0,5.6,9.2,19,0.00,,,0.00,LWC V2.10 B1813,2014-01-05 22:04:00,
2014-01-05 14:09:00,66.2,-99.9,30.02,NNE,22,2.0,2.0,19,0.00,,,0.00,LWC V2.10 B1813,2014-01-05 22:09:00,
2014-01-05 14:14:00,66.4,-99.9,30.01,NNE,22,8.5,8.5,19,0.00,,,0.00,LWC V2.10 B1813,2014-01-05 22:14:00,
2014-01-05 14:19:00,66.4,-99.9,30.01,NNE,22,2.0,5.4,19,0.00,,,0.00,LWC V2.10 B1813,2014-01-05 22:19:00,
2014-01-05 14:24:00,66.4,-99.9,30.01,NNE,22,5.4,5.4,19,0.00,,,0.00,LWC V2.10 B1813,2014-01-05 22:24:00,
2014-01-05 14:29:00,66.2,23.9,30.01,NNE,22,4.2,4.2,20,0.00,,,0.00,LWC V2.10 B1813,2014-01-05 22:29:00,
2014-01-05 14:34:00,66.2,23.9,30.01,East,90,6.9,6.9,20,0.00,,,0.00,LWC V2.10 B1813,2014-01-05 22:34:00,
2014-01-05 14:39:00,66.0,23.8,30.01,NNE,22,3.8,3.8,20,0.00,,,0.00,LWC V2.10 B1813,2014-01-05 22:39:00,
2014-01-05 14:44:00,66.0,23.8,30.01,NNE,22,5.6,5.6,20,0.00,,,0.00,LWC V2.10 B1813,2014-01-05 22:44:00,
2014-01-05 14:49:00,66.0,23.8,30.00,NNE,22,5.6,5.6,20,0.00,,,0.00,LWC V2.10 B1813,2014-01-05 22:49:00,
2014-01-05 14:54:00,65.8,23.6,30.01,NNE,22,6.7,6.7,20,0.00,,,0.00,LWC V2.10 B1813,2014-01-05 22:54:00,
2014-01-05 14:59:00,66.0,23.8,30.01,East,90,4.2,5.4,20,0.00,,,0.00,LWC V2.10 B1813,2014-01-05 22:59:00,
2014-01-05 15:04:00,65.8,23.6,30.01,NNE,22,6.5,6.5,20,0.00,,,0.00,LWC V2.10 B1813,2014-01-05 23:04:00,
2014-01-05 15:09:00,65.8,23.6,30.01,NNE,22,5.6,5.6,20,0.00,,,0.00,LWC V2.10 B1813,2014-01-05 23:09:00,
2014-01-05 15:14:00,65.8,23.6,30.01,NNE,22,6.3,6.3,20,0.00,,,0.00,LWC V2.10 B1813,2014-01-05 23:14:00,
2014-01-05 15:19:00,65.8,23.6,30.01,NNE,22,5.8,5.8,20,0.00,,,0.00,LWC V2.10 B1813,2014-01-05 23:19:00,
2014-01-05 15:24:00,65.8,23.6,30.01,NNE,22,5.1,5.1,20,0.00,,,0.00,LWC V2.10 B1813,2014-01-05 23:24:00,
2014-01-05 15:29:00,65.7,23.5,30.01,North,0,4.2,4.2,20,0.00,,,0.00,LWC V2.10 B1813,2014-01-05 23:29:00,
2014-01-05 15:34:00,65.5,23.3,30.01,NNE,22,4.0,4.0,20,0.00,,,0.00,LWC V2.10 B1813,2014-01-05 23:34:00,
2014-01-05 15:39:00,65.5,23.3,30.01,NNE,22,6.5,6.5,20,0.00,,,0.00,LWC V2.10 B1813,2014-01-05 23:39:00,
2014-01-05 15:44:00,65.3,23.2,30.01,NNE,22,2.7,3.8,20,0.00,,,0.00,LWC V2.10 B1813,2014-01-05 23:44:00,
2014-01-05 15:49:00,65.1,23.0,30.01,NNE,22,3.1,3.1,20,0.00,,,0.00,LWC V2.10 B1813,2014-01-05 23:49:00,
2014-01-05 15:54:00,64.9,22.9,30.01,NNE,22,1.3,1.3,20,0.00,,,0.00,LWC V2.10 B1813,2014-01-05 23:54:00,
2014-01-05 15:59:00,64.6,22.6,30.01,NNE,22,2.9,3.6,20,0.00,,,0.00,LWC V2.10 B1813,2014-01-05 23:59:00,
2014-01-05 16:04:00,64.2,23.3,30.02,NE,45,2.7,3.6,21,0.00,,,0.00,LWC V2.10 B1813,2014-01-06 00:04:00,
2014-01-05 16:09:00,64.2,23.3,30.01,NNE,22,0.0,0.0,21,0.00,,,0.00,LWC V2.10 B1813,2014-01-06 00:09:00,
2014-01-05 16:14:00,63.9,23.0,30.02,NNE,22,2.5,2.5,21,0.00,,,0.00,LWC V2.10 B1813,2014-01-06 00:14:00,
2014-01-05 16:19:00,63.7,23.8,30.02,NE,45,3.6,3.6,22,0.00,,,0.00,LWC V2.10 B1813,2014-01-06 00:19:00,
2014-01-05 16:24:00,63.5,24.7,30.02,NNE,22,2.7,2.7,23,0.00,,,0.00,LWC V2.10 B1813,2014-01-06 00:24:00,
2014-01-05 16:29:00,63.5,24.7,30.02,NNE,22,2.5,2.7,23,0.00,,,0.00,LWC V2.10 B1813,2014-01-06 00:29:00,
2014-01-05 16:34:00,63.3,24.5,30.02,North,0,5.4,5.4,23,0.00,,,0.00,LWC V2.10 B1813,2014-01-06 00:34:00,
2014-01-05 16:39:00,63.1,24.4,30.02,NNE,22,3.1,3.1,23,0.00,,,0.00,LWC V2.10 B1813,2014-01-06 00:39:00,
2014-01-05 16:44:00,63.1,24.4,30.02,North,0,1.8,2.9,23,0.00,,,0.00,LWC V2.10 B1813,2014-01-06 00:44:00,
2014-01-05 16:49:00,63.1,24.4,30.02,North,0,0.0,4.2,23,0.00,,,0.00,LWC V2.10 B1813,2014-01-06 00:49:00,
2014-01-05 16:54:00,63.1,24.4,30.02,NNE,22,4.5,4.5,23,0.00,,,0.00,LWC V2.10 B1813,2014-01-06 00:54:00,
2014-01-05 16:59:00,63.0,24.2,30.02,NNE,22,4.5,6.5,23,0.00,,,0.00,LWC V2.10 B1813,2014-01-06 00:59:00,
2014-01-05 17:04:00,62.6,23.9,30.02,North,0,6.3,6.3,23,0.00,,,0.00,LWC V2.10 B1813,2014-01-06 01:04:00,
2014-01-05 17:09:00,62.8,24.1,30.02,NNE,22,3.8,3.8,23,0.00,,,0.00,LWC V2.10 B1813,2014-01-06 01:09:00,
2014-01-05 17:14:00,62.6,23.9,30.02,NNE,22,3.8,3.8,23,0.00,,,0.00,LWC V2.10 B1813,2014-01-06 01:14:00,
2014-01-05 17:19:00,62.4,22.8,30.02,NNE,22,3.1,8.3,22,0.00,,,0.00,LWC V2.10 B1813,2014-01-06 01:19:00,
2014-01-05 17:24:00,62.4,22.8,30.02,North,0,2.5,2.5,22,0.00,,,0.00,LWC V2.10 B1813,2014-01-06 01:24:00,
2014-01-05 17:29:00,62.4,23.8,30.02,North,0,6.7,6.7,23,0.00,,,0.00,LWC V2.10 B1813,2014-01-06 01:29:00,
2014-01-05 17:34:00,62.2,23.6,30.02,North,0,3.4,3.8,23,0.00,,,0.00,LWC V2.10 B1813,2014-01-06 01:34:00,
2014-01-05 17:39:00,62.1,23.5,30.03,North,0,3.4,3.4,23,0.00,,,0.00,LWC V2.10 B1813,2014-01-06 01:39:00,
2014-01-05 17:44:00,61.7,23.2,30.03,North,0,2.9,2.9,23,0.00,,,0.00,LWC V2.10 B1813,2014-01-06 01:44:00,
2014-01-05 17:49:00,61.7,23.2,30.03,North,0,4.0,6.5,23,0.00,,,0.00,LWC V2.10 B1813,2014-01-06 01:49:00,
2014-01-05 17:54:00,61.7,23.2,30.03,North,0,2.5,2.5,23,0.00,,,0.00,LWC V2.10 B1813,2014-01-06 01:54:00,
2014-01-05 17:59:00,61.5,23.0,30.03,North,0,4.5,4.5,23,0.00,,,0.00,LWC V2.10 B1813,2014-01-06 01:59:00,
2014-01-05 18:04:00,61.5,23.0,30.03,North,0,0.0,2.0,23,0.00,,,0.00,LWC V2.10 B1813,2014-01-06 02:04:00,
2014-01-05 18:09:00,61.3,22.9,30.03,North,0,3.1,3.1,23,0.00,,,0.00,LWC V2.10 B1813,2014-01-06 02:09:00,
2014-01-05 18:14:00,61.2,22.7,30.03,NNW,337,1.6,3.1,23,0.00,,,0.00,LWC V2.10 B1813,2014-01-06 02:14:00,
2014-01-05 18:19:00,61.2,22.7,30.03,NNW,337,0.0,3.4,23,0.00,,,0.00,LWC V2.10 B1813,2014-01-06 02:19:00,
2014-01-05 18:24:00,61.0,23.5,30.04,NNW,337,0.0,0.0,24,0.00,,,0.00,LWC V2.10 B1813,2014-01-06 02:24:00,
2014-01-05 18:29:00,60.6,23.5,30.04,NNW,337,0.0,0.0,24,0.00,,,0.00,LWC V2.10 B1813,2014-01-06 02:29:00,
2014-01-05 18:34:00,60.6,23.2,30.04,NNW,337,0.0,0.4,24,0.00,,,0.00,LWC V2.10 B1813,2014-01-06 02:34:00,
2014-01-05 18:39:00,60.4,23.1,30.04,NNW,337,0.0,0.0,24,0.00,,,0.00,LWC V2.10 B1813,2014-01-06 02:39:00,
2014-01-05 18:44:00,60.4,23.1,30.04,NNW,337,0.0,0.0,24,0.00,,,0.00,LWC V2.10 B1813,2014-01-06 02:44:00,
2014-01-05 18:49:00,60.1,22.8,30.04,NNW,337,0.0,0.0,24,0.00,,,0.00,LWC V2.10 B1813,2014-01-06 02:49:00,
2014-01-05 18:54:00,60.1,22.8,30.04,NNW,337,0.9,0.9,24,0.00,,,0.00,LWC V2.10 B1813,2014-01-06 02:54:00,
2014-01-05 18:59:00,60.1,22.8,30.04,NNW,337,0.0,0.0,24,0.00,,,0.00,LWC V2.10 B1813,2014-01-06 02:59:00,
2014-01-05 19:04:00,60.1,21.8,30.04,North,0,0.0,0.0,23,0.00,,,0.00,LWC V2.10 B1813,2014-01-06 03:04:00,
2014-01-05 19:09:00,60.1,22.8,30.04,NNW,337,0.4,0.4,24,0.00,,,0.00,LWC V2.10 B1813,2014-01-06 03:09:00,
2014-01-05 19:14:00,59.7,22.5,30.05,NNW,337,0.0,0.0,24,0.00,,,0.00,LWC V2.10 B1813,2014-01-06 03:14:00,
2014-01-05 19:19:00,59.7,22.5,30.05,NW,315,0.0,0.0,24,0.00,,,0.00,LWC V2.10 B1813,2014-01-06 03:19:00,
2014-01-05 19:24:00,59.5,22.3,30.05,NW,315,0.0,0.0,24,0.00,,,0.00,LWC V2.10 B1813,2014-01-06 03:24:00,
2014-01-05 19:29:00,59.2,23.0,30.04,NW,315,0.0,0.0,25,0.00,,,0.00,LWC V2.10 B1813,2014-01-06 03:29:00,
2014-01-05 19:34:00,59.0,22.8,30.05,NW,315,1.3,1.3,25,0.00,,,0.00,LWC V2.10 B1813,2014-01-06 03:34:00,
2014-01-05 19:39:00,58.8,22.7,30.05,NW,315,0.0,0.0,25,0.00,,,0.00,LWC V2.10 B1813,2014-01-06 03:39:00,
2014-01-05 19:44:00,58.8,22.7,30.05,NNW,337,0.9,0.9,25,0.00,,,0.00,LWC V2.10 B1813,2014-01-06 03:44:00,
2014-01-05 19:49:00,58.6,22.5,30.04,NNW,337,0.0,2.2,25,0.00,,,0.00,LWC V2.10 B1813,2014-01-06 03:49:00,
2014-01-05 19:54:00,58.6,22.5,30.05,NNW,337,0.0,0.0,25,0.00,,,0.00,LWC V2.10 B1813,2014-01-06 03:54:00,
2014-01-05 19:59:00,58.5,22.4,30.05,WNW,292,0.0,0.0,25,0.00,,,0.00,LWC V2.10 B1813,2014-01-06 03:59:00,
2014-01-05 20:04:00,58.3,22.2,30.05,NW,315,0.7,0.7,25,0.00,,,0.00,LWC V2.10 B1813,2014-01-06 04:04:00,
2014-01-05 20:09:00,58.3,22.2,30.05,NW,315,0.0,0.0,25,0.00,,,0.00,LWC V2.10 B1813,2014-01-06 04:09:00,
2014-01-05 20:14:00,58.1,22.0,30.05,NNW,337,0.0,0.0,25,0.00,,,0.00,LWC V2.10 B1813,2014-01-06 04:14:00,
2014-01-05 20:19:00,58.1,22.0,30.05,NNW,337,0.0,0.0,25,0.00,,,0.00,LWC V2.10 B1813,2014-01-06 04:19:00,
2014-01-05 20:24:00,58.1,22.0,30.05,North,0,3.8,3.8,25,0.00,,,0.00,LWC V2.10 B1813,2014-01-06 04:24:00,
2014-01-05 20:34:00,57.9,21.9,30.05,North,0,0.4,0.4,25,0.00,,,0.00,LWC V2.10 B1813,2014-01-06 04:34:00,
2014-01-05 20:39:00,57.9,22.9,30.05,North,0,0.0,0.0,26,0.00,,,0.00,LWC V2.10 B1813,2014-01-06 04:39:00,
2014-01-05 20:44:00,57.9,22.9,30.06,North,0,6.0,6.0,26,0.00,,,0.00,LWC V2.10 B1813,2014-01-06 04:44:00,
2014-01-05 20:49:00,57.9,22.9,30.06,North,0,0.0,0.0,26,0.00,,,0.00,LWC V2.10 B1813,2014-01-06 04:49:00,
2014-01-05 20:54:00,57.7,22.7,30.06,North,0,0.0,0.0,26,0.00,,,0.00,LWC V2.10 B1813,2014-01-06 04:54:00,
2014-01-05 20:59:00,57.7,22.7,30.06,NNW,337,1.6,1.6,26,0.00,,,0.00,LWC V2.10 B1813,2014-01-06 04:59:00,
2014-01-05 21:04:00,57.6,22.5,30.06,North,0,0.0,0.0,26,0.00,,,0.00,LWC V2.10 B1813,2014-01-06 05:04:00,
2014-01-05 21:09:00,57.6,22.5,30.06,North,0,1.6,1.6,26,0.00,,,0.00,LWC V2.10 B1813,2014-01-06 05:09:00,
2014-01-05 21:19:00,57.6,22.5,30.06,North,0,0.0,0.0,26,0.00,,,0.00,LWC V2.10 B1813,2014-01-06 05:19:00,
2014-01-05 21:24:00,57.4,23.3,30.06,North,0,0.0,0.0,27,0.00,,,0.00,LWC V2.10 B1813,2014-01-06 05:24:00,
2014-01-05 21:29:00,57.4,22.4,30.07,North,0,0.0,0.0,26,0.00,,,0.00,LWC V2.10 B1813,2014-01-06 05:29:00,
2014-01-05 21:34:00,57.4,22.4,30.07,North,0,0.0,0.0,26,0.00,,,0.00,LWC V2.10 B1813,2014-01-06 05:34:00,
2014-01-05 21:39:00,57.4,22.2,30.07,North,0,0.9,1.1,26,0.00,,,0.00,LWC V2.10 B1813,2014-01-06 05:39:00,
2014-01-05 21:44:00,57.2,23.2,30.07,North,0,0.0,0.4,27,0.00,,,0.00,LWC V2.10 B1813,2014-01-06 05:44:00,
2014-01-05 21:49:00,57.0,23.0,30.07,North,0,0.0,0.0,27,0.00,,,0.00,LWC V2.10 B1813,2014-01-06 05:49:00,
2014-01-05 21:54:00,57.0,23.0,30.07,North,0,0.0,0.0,27,0.00,,,0.00,LWC V2.10 B1813,2014-01-06 05:54:00,
2014-01-05 21:59:00,57.0,24.0,30.07,North,0,0.0,1.3,28,0.00,,,0.00,LWC V2.10 B1813,2014-01-06 05:59:00,
2014-01-05 22:04:00,56.8,23.8,30.07,North,0,0.0,0.0,28,0.00,,,0.00,LWC V2.10 B1813,2014-01-06 06:04:00,
2014-01-05 22:09:00,56.8,23.8,30.07,North,0,0.0,0.0,28,0.00,,,0.00,LWC V2.10 B1813,2014-01-06 06:09:00,
2014-01-05 22:14:00,56.7,24.6,30.07,North,0,1.3,1.3,29,0.00,,,0.00,LWC V2.10 B1813,2014-01-06 06:14:00,
2014-01-05 22:19:00,56.5,24.5,30.07,North,0,2.0,2.0,29,0.00,,,0.00,LWC V2.10 B1813,2014-01-06 06:19:00,
2014-01-05 22:24:00,56.3,25.4,30.07,North,0,3.4,3.4,30,0.00,,,0.00,LWC V2.10 B1813,2014-01-06 06:24:00,
2014-01-05 22:29:00,56.1,26.5,30.07,North,0,3.4,3.4,32,0.00,,,0.00,LWC V2.10 B1813,2014-01-06 06:29:00,
2014-01-05 22:34:00,56.1,26.5,30.08,North,0,0.0,0.0,32,0.00,,,0.00,LWC V2.10 B1813,2014-01-06 06:34:00,
2014-01-05 22:39:00,55.9,26.3,30.07,North,0,0.0,0.0,33,0.00,,,0.00,LWC V2.10 B1813,2014-01-06 06:39:00,
2014-01-05 22:44:00,55.8,26.9,30.08,North,0,0.0,0.0,33,0.00,,,0.00,LWC V2.10 B1813,2014-01-06 06:44:00,
2014-01-05 22:49:00,55.8,28.3,30.08,North,0,0.0,0.0,35,0.00,,,0.00,LWC V2.10 B1813,2014-01-06 06:49:00,
2014-01-05 22:54:00,55.6,28.8,30.08,North,0,0.0,0.0,35,0.00,,,0.00,LWC V2.10 B1813,2014-01-06 06:54:00,
2014-01-05 22:59:00,55.4,28.7,30.08,North,0,0.0,0.0,36,0.00,,,0.00,LWC V2.10 B1813,2014-01-06 06:59:00,
2014-01-05 23:04:00,55.2,29.2,30.07,North,0,0.9,0.9,37,0.00,,,0.00,LWC V2.10 B1813,2014-01-06 07:04:00,
2014-01-05 23:09:00,55.2,29.2,30.08,NNE,22,0.0,0.0,38,0.00,,,0.00,LWC V2.10 B1813,2014-01-06 07:09:00,
2014-01-05 23:14:00,55.0,29.7,30.08,North,0,0.0,0.0,38,0.00,,,0.00,LWC V2.10 B1813,2014-01-06 07:14:00,
2014-01-05 23:19:00,55.0,29.7,30.08,North,0,0.0,0.0,38,0.00,,,0.00,LWC V2.10 B1813,2014-01-06 07:19:00,
2014-01-05 23:24:00,54.9,29.6,30.08,North,0,0.0,0.0,38,0.00,,,0.00,LWC V2.10 B1813,2014-01-06 07:24:00,
2014-01-05 23:29:00,54.7,29.4,30.07,North,0,0.0,0.0,38,0.00,,,0.00,LWC V2.10 B1813,2014-01-06 07:29:00,
2014-01-05 23:34:00,54.7,29.4,30.07,North,0,0.0,0.0,38,0.00,,,0.00,LWC V2.10 B1813,2014-01-06 07:34:00,
2014-01-05 23:39:00,54.7,29.4,30.07,North,0,0.0,1.1,39,0.00,,,0.00,LWC V2.10 B1813,2014-01-06 07:39:00,
2014-01-05 23:44:00,54.5,29.9,30.07,North,0,0.0,0.0,39,0.00,,,0.00,LWC V2.10 B1813,2014-01-06 07:44:00,
2014-01-05 23:49:00,54.5,29.9,30.07,North,0,0.0,0.0,39,0.00,,,0.00,LWC V2.10 B1813,2014-01-06 07:49:00,
2014-01-05 23:54:00,54.3,29.8,30.07,NNW,337,0.0,0.0,39,0.00,,,0.00,LWC V2.10 B1813,2014-01-06 07:54:00,
2014-01-05 23:59:00,54.3,29.8,30.07,NNW,337,0.0,0.0,39,0.00,,,0.00,LWC V2.10 B1813,2014-01-06 07:59:00,